Terminal Aerodrome Forecast
Issued by NWS Sterling, VA

Current Version | Previous Version | Graphics & Text | Print | Product List | Glossary On
Versions: 1 2 3 4 5 6 7 8 9 10 11 12 13 14 15 16 17 18 19 20 21 22 23
951
FTUS41 KLWX 251132
TAFIAD
TAF
KIAD 251132Z 2512/2618 VRB04KT 5SM -RA BKN008 OVC015
     FM251500 18006KT P6SM BKN015
     FM251700 21006KT P6SM BKN030
     FM251900 21007KT P6SM -SHRA VCTS BKN045CB
     FM252300 23006KT P6SM -SHRA BKN045
     FM260000 24006KT P6SM BKN045
     FM261400 28012G20KT P6SM BKN040=

USA.gov is the U.S. government's official web portal to all federal, state and local government web resources and services.